createdAt,value
2019-02-17T00:00:03.646Z,0.00
2019-02-17T00:01:03.635Z,0.00
2019-02-17T00:02:03.631Z,0.00
2019-02-17T00:03:03.619Z,0.00
2019-02-17T00:04:03.606Z,0.00
2019-02-17T00:05:03.599Z,0.00
2019-02-17T00:06:03.587Z,0.00
2019-02-17T00:07:03.576Z,0.00
2019-02-17T00:08:03.569Z,0.00
2019-02-17T00:09:03.560Z,0.00
2019-02-17T00:10:03.547Z,0.00
2019-02-17T00:11:05.680Z,0.00
2019-02-17T00:12:03.529Z,0.00
2019-02-17T00:13:03.522Z,0.00
2019-02-17T00:14:03.510Z,0.00
2019-02-17T00:15:03.509Z,0.00
2019-02-17T00:16:03.486Z,0.00
2019-02-17T00:17:03.481Z,0.00
2019-02-17T00:18:03.472Z,0.00
2019-02-17T00:19:03.464Z,0.00
2019-02-17T00:20:03.449Z,0.00
2019-02-17T00:21:03.443Z,0.00
2019-02-17T00:22:03.432Z,0.00
2019-02-17T00:23:03.420Z,0.00
2019-02-17T00:24:03.412Z,0.00
2019-02-17T00:25:03.400Z,0.00
2019-02-17T00:26:03.393Z,0.00
2019-02-17T00:27:03.380Z,0.00
2019-02-17T00:28:03.372Z,0.00
2019-02-17T00:29:03.364Z,0.00
2019-02-17T00:30:03.351Z,0.00
2019-02-17T00:31:03.342Z,0.00
2019-02-17T00:32:03.321Z,0.00
2019-02-17T00:33:03.321Z,0.00
2019-02-17T00:34:03.313Z,0.00
2019-02-17T00:35:03.300Z,0.00
2019-02-17T00:36:03.290Z,0.00
2019-02-17T00:37:03.282Z,0.00
2019-02-17T00:38:03.269Z,0.00
2019-02-17T00:39:03.259Z,0.00
2019-02-17T00:40:03.249Z,0.00
2019-02-17T00:41:03.240Z,0.00
2019-02-17T00:42:03.239Z,0.00
2019-02-17T00:43:03.221Z,0.00
2019-02-17T00:44:03.210Z,0.00
2019-02-17T00:45:03.195Z,0.00
2019-02-17T00:46:03.187Z,0.00
2019-02-17T00:47:03.185Z,0.00
2019-02-17T00:48:03.170Z,0.00
2019-02-17T00:49:03.158Z,0.00
2019-02-17T00:50:03.152Z,0.00
2019-02-17T00:51:03.138Z,0.00
2019-02-17T00:52:03.127Z,0.00
2019-02-17T00:53:03.118Z,0.00
2019-02-17T00:54:03.107Z,0.00
2019-02-17T00:55:03.099Z,0.00
2019-02-17T00:56:03.090Z,0.00
2019-02-17T00:57:03.082Z,0.00
2019-02-17T00:58:03.071Z,0.00
2019-02-17T00:59:09.682Z,0.00
2019-02-17T01:00:03.065Z,0.00
2019-02-17T01:01:03.086Z,0.00
2019-02-17T01:02:03.033Z,0.00
2019-02-17T01:03:03.024Z,0.00
2019-02-17T01:04:03.010Z,0.00
2019-02-17T01:05:02.998Z,0.00
2019-02-17T01:06:02.989Z,0.00
2019-02-17T01:07:02.981Z,0.00
2019-02-17T01:08:02.968Z,0.00
2019-02-17T01:09:02.958Z,0.00
2019-02-17T01:10:02.949Z,0.00
2019-02-17T01:11:02.939Z,0.00
2019-02-17T01:12:02.932Z,0.00
2019-02-17T01:13:02.919Z,0.00
2019-02-17T01:14:02.915Z,0.00
2019-02-17T01:15:02.890Z,0.00
2019-02-17T01:16:02.888Z,0.00
2019-02-17T01:17:02.879Z,0.00
2019-02-17T01:18:02.866Z,0.00
2019-02-17T01:19:02.856Z,0.00
2019-02-17T01:20:02.845Z,0.00
2019-02-17T01:21:02.830Z,0.00
2019-02-17T01:22:02.830Z,0.00
2019-02-17T01:23:02.824Z,0.00
2019-02-17T01:24:02.806Z,0.00
2019-02-17T01:25:02.794Z,0.00
2019-02-17T01:26:02.785Z,0.00
2019-02-17T01:27:02.769Z,0.00
2019-02-17T01:28:02.760Z,0.00
2019-02-17T01:29:02.756Z,0.00
2019-02-17T01:30:02.747Z,0.00
2019-02-17T01:31:02.731Z,0.00
2019-02-17T01:32:02.724Z,0.00
2019-02-17T01:33:02.713Z,0.00
2019-02-17T01:34:02.694Z,0.00
2019-02-17T01:35:02.693Z,0.00
2019-02-17T01:36:02.681Z,0.00
2019-02-17T01:37:02.671Z,0.00
2019-02-17T01:38:02.667Z,0.00
2019-02-17T01:39:02.649Z,0.00
2019-02-17T01:40:02.632Z,0.00
2019-02-17T01:41:02.635Z,0.00
2019-02-17T01:42:02.619Z,0.00
2019-02-17T01:43:02.612Z,0.00
2019-02-17T01:44:02.605Z,0.00
2019-02-17T01:45:02.610Z,0.00
2019-02-17T01:46:02.579Z,0.00
2019-02-17T01:47:02.567Z,0.00
2019-02-17T01:48:02.558Z,0.00
2019-02-17T01:49:02.546Z,0.00
2019-02-17T01:50:02.539Z,0.00
2019-02-17T01:51:02.561Z,0.00
2019-02-17T01:52:05.161Z,0.00
2019-02-17T01:53:02.508Z,0.00
2019-02-17T01:54:02.529Z,0.00
2019-02-17T01:55:02.483Z,0.00
2019-02-17T01:56:02.473Z,0.00
2019-02-17T01:57:02.466Z,0.00
2019-02-17T01:58:02.443Z,0.00
2019-02-17T01:59:02.439Z,0.00
2019-02-17T02:00:02.429Z,0.00
2019-02-17T02:01:02.420Z,0.00
2019-02-17T02:02:02.405Z,0.00
2019-02-17T02:03:02.396Z,0.00
2019-02-17T02:04:02.385Z,0.00
2019-02-17T02:05:02.388Z,0.00
2019-02-17T02:06:02.368Z,0.00
2019-02-17T02:07:02.356Z,0.00
2019-02-17T02:08:02.346Z,0.00
2019-02-17T02:09:02.330Z,0.00
2019-02-17T02:10:02.333Z,0.00
2019-02-17T02:11:02.313Z,0.00
2019-02-17T02:12:02.305Z,0.00
2019-02-17T02:13:02.295Z,0.00
2019-02-17T02:14:02.283Z,0.00
2019-02-17T02:15:02.273Z,0.00
2019-02-17T02:16:02.268Z,0.00
2019-02-17T02:17:02.265Z,0.00
2019-02-17T02:18:02.249Z,0.00
2019-02-17T02:19:02.229Z,0.00
2019-02-17T02:20:02.222Z,0.00
2019-02-17T02:21:02.206Z,0.00
2019-02-17T02:22:02.206Z,0.00
2019-02-17T02:23:02.190Z,0.00
2019-02-17T02:24:02.178Z,0.00
2019-02-17T02:25:02.167Z,0.00
2019-02-17T02:26:02.156Z,0.00
2019-02-17T02:27:02.145Z,0.00
2019-02-17T02:28:02.134Z,0.00
2019-02-17T02:29:02.124Z,0.00
2019-02-17T02:30:02.115Z,0.00
2019-02-17T02:31:02.104Z,0.00
2019-02-17T02:32:02.096Z,0.00
2019-02-17T02:33:02.108Z,0.00
2019-02-17T02:34:02.072Z,0.00
2019-02-17T02:35:02.064Z,0.00
2019-02-17T02:36:02.051Z,0.00
2019-02-17T02:37:02.044Z,0.00
2019-02-17T02:38:02.034Z,0.00
2019-02-17T02:39:02.021Z,0.00
2019-02-17T02:40:02.013Z,0.00
2019-02-17T02:41:01.999Z,0.00
2019-02-17T02:42:01.990Z,0.00
2019-02-17T02:43:01.976Z,0.00
2019-02-17T02:44:01.975Z,0.00
2019-02-17T02:45:01.971Z,0.00
2019-02-17T02:46:01.947Z,0.00
2019-02-17T02:47:01.937Z,0.00
2019-02-17T02:48:01.945Z,0.00
2019-02-17T02:49:01.915Z,0.00
2019-02-17T02:50:01.904Z,0.00
2019-02-17T02:51:01.894Z,0.00
2019-02-17T02:52:01.880Z,0.00
2019-02-17T02:53:01.878Z,0.00
2019-02-17T02:54:01.863Z,0.00
2019-02-17T02:55:01.856Z,0.00
2019-02-17T02:56:01.842Z,0.00
2019-02-17T02:57:01.829Z,0.00
2019-02-17T02:58:01.821Z,0.00
2019-02-17T02:59:01.812Z,0.00
2019-02-17T03:00:01.798Z,0.00
2019-02-17T03:01:01.790Z,0.00
2019-02-17T03:02:01.802Z,0.00
2019-02-17T03:03:01.768Z,0.00
2019-02-17T03:04:01.754Z,0.00
2019-02-17T03:05:01.761Z,0.00
2019-02-17T03:06:01.735Z,0.00
2019-02-17T03:07:01.732Z,0.00
2019-02-17T03:08:01.713Z,0.00
2019-02-17T03:09:01.703Z,0.00
2019-02-17T03:10:01.700Z,0.00
2019-02-17T03:11:01.680Z,0.00
2019-02-17T03:12:01.686Z,0.00
2019-02-17T03:13:01.657Z,0.00
2019-02-17T03:14:01.648Z,0.00
2019-02-17T03:15:01.639Z,0.00
2019-02-17T03:16:01.624Z,0.00
2019-02-17T03:17:01.614Z,0.00
2019-02-17T03:18:01.606Z,0.00
2019-02-17T03:19:01.593Z,0.00
2019-02-17T03:20:01.583Z,0.00
2019-02-17T03:21:01.573Z,0.00
2019-02-17T03:22:01.567Z,0.00
2019-02-17T03:23:01.651Z,0.00
2019-02-17T03:24:01.538Z,0.00
2019-02-17T03:25:01.592Z,0.00
2019-02-17T03:26:01.514Z,0.00
2019-02-17T03:27:01.506Z,0.00
2019-02-17T03:28:01.500Z,0.00
2019-02-17T03:29:01.486Z,0.00
2019-02-17T03:30:04.872Z,0.00
2019-02-17T03:31:01.469Z,0.00
2019-02-17T03:32:01.451Z,0.00
2019-02-17T03:33:01.468Z,0.00
2019-02-17T03:34:01.441Z,0.00
2019-02-17T03:35:01.427Z,0.00
2019-02-17T03:36:01.414Z,0.00
2019-02-17T03:37:01.403Z,0.00
2019-02-17T03:38:01.388Z,0.00
2019-02-17T03:39:01.376Z,0.00
2019-02-17T03:40:01.365Z,0.00
2019-02-17T03:41:01.360Z,0.00
2019-02-17T03:42:01.347Z,0.00
2019-02-17T03:43:01.328Z,0.00
2019-02-17T03:44:01.324Z,0.00
2019-02-17T03:45:01.321Z,0.00
2019-02-17T03:46:01.330Z,0.00
2019-02-17T03:47:01.291Z,0.00
2019-02-17T03:48:01.284Z,0.00
2019-02-17T03:49:01.268Z,0.00
2019-02-17T03:50:01.261Z,0.00
2019-02-17T03:51:01.247Z,0.00
2019-02-17T03:52:01.235Z,0.00
2019-02-17T03:53:01.226Z,0.00
2019-02-17T03:54:01.214Z,0.00
2019-02-17T03:55:01.202Z,0.00
2019-02-17T03:56:01.197Z,0.00
2019-02-17T03:57:01.182Z,0.00
2019-02-17T03:58:01.180Z,0.00
2019-02-17T03:59:01.161Z,0.00
2019-02-17T04:00:01.143Z,0.00
2019-02-17T04:01:01.137Z,0.00
2019-02-17T04:02:01.128Z,0.00
2019-02-17T04:03:01.133Z,0.00
2019-02-17T04:04:01.108Z,0.00
2019-02-17T04:05:01.101Z,0.00
2019-02-17T04:06:01.085Z,0.00
2019-02-17T04:07:01.070Z,0.00
2019-02-17T04:08:01.064Z,0.00
2019-02-17T04:09:01.052Z,0.00
2019-02-17T04:10:01.048Z,0.00
2019-02-17T04:11:01.030Z,0.00
2019-02-17T04:12:01.048Z,0.00
2019-02-17T04:13:01.010Z,0.00
2019-02-17T04:14:00.996Z,0.00
2019-02-17T04:15:00.986Z,0.00
2019-02-17T04:16:00.975Z,0.00
2019-02-17T04:17:00.968Z,0.00
2019-02-17T04:18:00.951Z,0.00
2019-02-17T04:19:00.946Z,0.00
2019-02-17T04:20:00.931Z,0.00
2019-02-17T04:21:00.921Z,0.00
2019-02-17T04:22:00.912Z,0.00
2019-02-17T04:23:00.899Z,0.00
2019-02-17T04:24:00.886Z,0.00
2019-02-17T04:25:00.879Z,0.00
2019-02-17T04:26:00.885Z,0.00
2019-02-17T04:27:00.856Z,0.00
2019-02-17T04:28:00.844Z,0.00
2019-02-17T04:29:00.833Z,0.00
2019-02-17T04:30:00.819Z,0.00
2019-02-17T04:31:00.815Z,0.00
2019-02-17T04:32:00.805Z,0.00
2019-02-17T04:33:00.789Z,0.00
2019-02-17T04:34:00.829Z,0.00
2019-02-17T04:35:00.778Z,0.00
2019-02-17T04:36:00.755Z,0.00
2019-02-17T04:37:00.754Z,0.00
2019-02-17T04:38:00.738Z,0.00
2019-02-17T04:39:00.729Z,0.00
2019-02-17T04:40:00.715Z,0.00
2019-02-17T04:41:00.703Z,0.00
2019-02-17T04:42:00.691Z,0.00
2019-02-17T04:43:00.681Z,0.00
2019-02-17T04:44:00.672Z,0.00
2019-02-17T04:45:00.662Z,0.00
2019-02-17T04:46:00.651Z,0.00
2019-02-17T04:47:00.637Z,0.00
2019-02-17T04:48:00.625Z,0.00
2019-02-17T04:49:00.636Z,0.00
2019-02-17T04:50:00.605Z,0.00
2019-02-17T04:51:00.595Z,0.00
2019-02-17T04:52:00.583Z,0.00
2019-02-17T04:53:00.569Z,0.00
2019-02-17T04:54:00.601Z,0.00
2019-02-17T04:55:00.551Z,0.00
2019-02-17T04:56:00.565Z,0.00
2019-02-17T04:57:00.529Z,0.00
2019-02-17T04:58:00.554Z,0.00
2019-02-17T04:59:00.503Z,0.00
2019-02-17T05:00:00.531Z,0.00
2019-02-17T05:01:00.495Z,0.00
2019-02-17T05:02:00.496Z,0.00
2019-02-17T05:03:00.462Z,0.00
2019-02-17T05:04:00.447Z,0.00
2019-02-17T05:05:00.455Z,0.00
2019-02-17T05:06:00.428Z,0.00
2019-02-17T05:07:00.410Z,0.00
2019-02-17T05:08:00.425Z,0.00
2019-02-17T05:09:00.396Z,0.00
2019-02-17T05:10:00.387Z,0.00
2019-02-17T05:11:00.372Z,0.00
2019-02-17T05:12:02.612Z,0.00
2019-02-17T05:13:00.350Z,0.00
2019-02-17T05:14:00.338Z,0.00
2019-02-17T05:15:00.360Z,0.00
2019-02-17T05:16:00.312Z,0.00
2019-02-17T05:17:00.307Z,0.00
2019-02-17T05:18:00.295Z,0.00
2019-02-17T05:19:00.281Z,0.00
2019-02-17T05:20:00.285Z,0.00
2019-02-17T05:21:00.259Z,0.00
2019-02-17T05:22:00.248Z,0.00
2019-02-17T05:23:00.236Z,0.00
2019-02-17T05:24:00.231Z,0.00
2019-02-17T05:25:00.383Z,0.00
2019-02-17T05:26:00.206Z,0.00
2019-02-17T05:27:00.187Z,0.00
2019-02-17T05:28:00.180Z,0.00
2019-02-17T05:29:00.174Z,0.00
2019-02-17T05:30:00.521Z,0.00
2019-02-17T05:31:00.147Z,0.00
2019-02-17T05:32:00.138Z,0.00
2019-02-17T05:33:00.125Z,0.00
2019-02-17T05:34:00.110Z,0.00
2019-02-17T05:35:00.168Z,0.00
2019-02-17T05:36:00.087Z,0.00
2019-02-17T05:37:00.083Z,0.00
2019-02-17T05:38:00.070Z,0.00
2019-02-17T05:39:00.057Z,0.00
2019-02-17T05:40:00.047Z,0.00
2019-02-17T05:41:00.036Z,0.00
2019-02-17T05:42:00.025Z,0.00
2019-02-17T05:43:00.020Z,0.00
2019-02-17T05:44:00.001Z,0.00
2019-02-17T05:44:59.980Z,0.00
2019-02-17T05:45:59.980Z,0.00
2019-02-17T05:46:59.977Z,0.00
2019-02-17T05:47:59.954Z,0.00
2019-02-17T05:48:59.947Z,0.00
2019-02-17T05:49:59.934Z,0.00
2019-02-17T05:50:59.921Z,4.00
2019-02-17T05:51:59.909Z,0.00
2019-02-17T05:52:59.900Z,0.00
2019-02-17T05:53:59.887Z,4.00
2019-02-17T05:54:59.884Z,4.00
2019-02-17T05:55:59.863Z,4.00
2019-02-17T05:56:59.852Z,4.00
2019-02-17T05:57:59.842Z,8.00
2019-02-17T05:58:59.831Z,4.00
2019-02-17T05:59:59.821Z,8.00
2019-02-17T06:01:03.807Z,12.00
2019-02-17T06:02:02.153Z,12.00
2019-02-17T06:02:59.803Z,12.00
2019-02-17T06:03:59.779Z,20.00
2019-02-17T06:04:59.764Z,24.00
2019-02-17T06:05:59.749Z,24.00
2019-02-17T06:06:59.735Z,32.00
2019-02-17T06:07:59.728Z,36.00
2019-02-17T06:08:59.719Z,44.00
2019-02-17T06:09:59.709Z,52.00
2019-02-17T06:10:59.695Z,64.00
2019-02-17T06:11:59.677Z,76.00
2019-02-17T06:12:59.673Z,88.00
2019-02-17T06:13:59.671Z,100.00
2019-02-17T06:14:59.650Z,116.00
2019-02-17T06:15:59.639Z,132.00
2019-02-17T06:16:59.629Z,152.00
2019-02-17T06:17:59.615Z,172.00
2019-02-17T06:18:59.605Z,196.00
2019-02-17T06:19:59.603Z,220.00
2019-02-17T06:20:59.584Z,252.00
2019-02-17T06:21:59.571Z,280.00
2019-02-17T06:22:59.560Z,312.00
2019-02-17T06:23:59.545Z,344.00
2019-02-17T06:24:59.538Z,380.00
2019-02-17T06:25:59.543Z,420.00
2019-02-17T06:26:59.515Z,460.00
2019-02-17T06:27:59.499Z,500.00
2019-02-17T06:28:59.484Z,552.00
2019-02-17T06:29:59.480Z,640.00
2019-02-17T06:30:59.479Z,748.00
2019-02-17T06:31:59.479Z,844.00
2019-02-17T06:32:59.457Z,916.00
2019-02-17T06:33:59.441Z,1000.00
2019-02-17T06:34:59.427Z,1088.00
2019-02-17T06:35:59.417Z,1196.00
2019-02-17T06:36:59.430Z,1304.00
2019-02-17T06:37:59.394Z,1400.00
2019-02-17T06:38:59.385Z,1512.00
2019-02-17T06:39:59.380Z,1628.00
2019-02-17T06:40:59.365Z,1736.00
2019-02-17T06:41:59.352Z,1852.00
2019-02-17T06:42:59.340Z,1984.00
2019-02-17T06:43:59.332Z,2120.00
2019-02-17T06:44:59.320Z,2256.00
2019-02-17T06:45:59.316Z,2392.00
2019-02-17T06:46:59.296Z,2528.00
2019-02-17T06:47:59.293Z,2660.00
2019-02-17T06:48:59.282Z,2780.00
2019-02-17T06:49:59.272Z,2920.00
2019-02-17T06:50:59.266Z,3048.00
2019-02-17T06:51:59.304Z,3188.00
2019-02-17T06:52:59.236Z,3328.00
2019-02-17T06:53:59.238Z,3460.00
2019-02-17T06:54:59.226Z,3584.00
2019-02-17T06:55:59.214Z,3716.00
2019-02-17T06:56:59.213Z,3844.00
2019-02-17T06:57:59.202Z,3976.00
2019-02-17T06:58:59.196Z,4100.00
2019-02-17T06:59:59.177Z,4244.00
2019-02-17T07:00:59.182Z,4376.00
2019-02-17T07:01:59.168Z,4500.00
2019-02-17T07:02:59.162Z,4624.00
2019-02-17T07:03:59.144Z,4740.00
2019-02-17T07:04:59.164Z,4872.00
2019-02-17T07:05:59.142Z,4996.00
2019-02-17T07:06:59.141Z,5124.00
2019-02-17T07:07:59.161Z,5260.00
2019-02-17T07:08:59.119Z,5324.00
2019-02-17T07:09:59.117Z,5432.00
2019-02-17T07:10:59.108Z,5632.00
2019-02-17T07:11:59.128Z,5768.00
2019-02-17T07:12:59.095Z,5888.00
2019-02-17T07:13:59.080Z,6000.00
2019-02-17T07:14:59.073Z,6116.00
2019-02-17T07:15:59.082Z,6228.00
2019-02-17T07:16:59.067Z,6360.00
2019-02-17T07:17:59.292Z,6472.00
2019-02-17T07:18:59.058Z,6584.00
2019-02-17T07:19:59.047Z,6704.00
2019-02-17T07:20:59.041Z,6824.00
2019-02-17T07:21:59.039Z,6936.00
2019-02-17T07:22:59.024Z,7036.00
2019-02-17T07:23:59.017Z,7120.00
2019-02-17T07:24:59.020Z,7244.00
2019-02-17T07:25:59.028Z,7156.00
2019-02-17T07:26:59.008Z,7260.00
2019-02-17T07:27:58.999Z,7360.00
2019-02-17T07:28:58.991Z,7464.00
2019-02-17T07:29:59.003Z,7544.00
2019-02-17T07:30:58.991Z,7636.00
2019-02-17T07:31:58.981Z,7732.00
2019-02-17T07:32:58.986Z,7816.00
2019-02-17T07:33:58.978Z,7912.00
2019-02-17T07:34:59.855Z,8004.00
2019-02-17T07:35:58.969Z,8084.00
2019-02-17T07:36:58.962Z,8152.00
2019-02-17T07:37:58.964Z,8240.00
2019-02-17T07:38:58.957Z,8324.00
2019-02-17T07:39:58.954Z,8404.00
2019-02-17T07:40:58.949Z,8480.00
2019-02-17T07:41:59.001Z,8544.00
2019-02-17T07:43:00.268Z,8644.00
2019-02-17T07:43:58.937Z,8716.00
2019-02-17T07:44:58.936Z,8796.00
2019-02-17T07:45:58.933Z,8856.00
2019-02-17T07:46:58.929Z,8924.00
2019-02-17T07:47:58.925Z,9012.00
2019-02-17T07:48:58.923Z,9064.00
2019-02-17T07:49:58.920Z,9132.00
2019-02-17T07:50:58.917Z,9176.00
2019-02-17T07:51:58.918Z,9236.00
2019-02-17T07:52:58.972Z,9308.00
2019-02-17T07:53:58.911Z,9344.00
2019-02-17T07:54:58.906Z,9392.00
2019-02-17T07:55:58.903Z,9452.00
2019-02-17T07:56:58.900Z,9512.00
2019-02-17T07:57:58.899Z,9540.00
2019-02-17T07:58:58.898Z,9548.00
2019-02-17T07:59:58.893Z,9592.00
2019-02-17T08:00:58.890Z,9612.00
2019-02-17T08:01:58.889Z,9652.00
2019-02-17T08:02:58.882Z,9696.00
2019-02-17T08:03:58.884Z,9720.00
2019-02-17T08:04:58.885Z,9744.00
2019-02-17T08:05:58.875Z,9776.00
2019-02-17T08:06:58.881Z,9792.00
2019-02-17T08:07:58.878Z,9836.00
2019-02-17T08:08:58.874Z,9840.00
2019-02-17T08:10:00.652Z,9856.00
2019-02-17T08:11:04.027Z,9948.00
2019-02-17T08:11:58.892Z,10092.00
2019-02-17T08:12:58.922Z,10228.00
2019-02-17T08:13:58.864Z,10300.00
2019-02-17T08:14:58.863Z,10356.00
2019-02-17T08:15:58.864Z,10428.00
2019-02-17T08:16:58.876Z,10488.00
2019-02-17T08:17:58.867Z,10564.00
2019-02-17T08:18:58.864Z,10656.00
2019-02-17T08:19:58.864Z,10740.00
2019-02-17T08:20:58.864Z,10788.00
2019-02-17T08:21:58.876Z,10820.00
2019-02-17T08:22:58.864Z,10888.00
2019-02-17T08:23:58.863Z,10948.00
2019-02-17T08:24:58.864Z,10928.00
2019-02-17T08:25:58.866Z,10980.00
2019-02-17T08:26:58.880Z,11048.00
2019-02-17T08:27:58.866Z,11116.00
2019-02-17T08:28:58.867Z,11140.00
2019-02-17T08:29:58.875Z,11148.00
2019-02-17T08:30:58.877Z,11160.00
2019-02-17T08:31:58.861Z,11184.00
2019-02-17T08:32:58.924Z,11200.00
2019-02-17T08:33:58.868Z,11128.00
2019-02-17T08:34:58.899Z,11076.00
2019-02-17T08:35:58.879Z,10984.00
2019-02-17T08:36:58.950Z,10932.00
2019-02-17T08:37:58.879Z,10876.00
2019-02-17T08:38:58.902Z,10840.00
2019-02-17T08:39:58.886Z,10852.00
2019-02-17T08:41:00.777Z,10884.00
2019-02-17T08:41:58.937Z,10888.00
2019-02-17T08:42:58.985Z,10920.00
2019-02-17T08:44:00.833Z,10912.00
2019-02-17T08:44:58.896Z,10956.00
2019-02-17T08:45:58.902Z,10988.00
2019-02-17T08:46:58.899Z,10940.00
2019-02-17T08:47:58.908Z,11036.00
2019-02-17T08:48:58.926Z,11044.00
2019-02-17T08:49:58.907Z,11040.00
2019-02-17T08:50:58.912Z,11068.00
2019-02-17T08:52:00.811Z,11100.00
2019-02-17T08:52:58.910Z,11148.00
2019-02-17T08:53:58.915Z,11192.00
2019-02-17T08:54:58.919Z,11196.00
2019-02-17T08:55:58.919Z,11204.00
2019-02-17T08:56:58.924Z,11212.00
2019-02-17T08:57:58.943Z,11244.00
2019-02-17T08:58:58.933Z,11288.00
2019-02-17T08:59:58.927Z,11288.00
2019-02-17T09:00:58.932Z,11304.00
2019-02-17T09:02:05.602Z,11320.00
2019-02-17T09:02:58.936Z,11324.00
2019-02-17T09:03:58.943Z,11332.00
2019-02-17T09:04:58.942Z,11304.00
2019-02-17T09:05:58.945Z,11316.00
2019-02-17T09:06:58.946Z,11360.00
2019-02-17T09:07:58.950Z,11412.00
2019-02-17T09:08:58.957Z,11412.00
2019-02-17T09:09:58.955Z,11408.00
2019-02-17T09:10:58.953Z,11388.00
2019-02-17T09:11:58.962Z,11412.00
2019-02-17T09:12:58.957Z,11420.00
2019-02-17T09:13:58.969Z,11368.00
2019-02-17T09:14:58.969Z,11364.00
2019-02-17T09:15:58.971Z,11376.00
2019-02-17T09:16:58.978Z,11384.00
2019-02-17T09:17:58.983Z,11400.00
2019-02-17T09:18:58.983Z,11396.00
2019-02-17T09:19:58.988Z,11428.00
2019-02-17T09:20:59.005Z,11500.00
2019-02-17T09:21:59.000Z,11492.00
2019-02-17T09:22:59.063Z,11504.00
2019-02-17T09:24:00.696Z,11524.00
2019-02-17T09:24:59.012Z,11548.00
2019-02-17T09:25:59.034Z,11532.00
2019-02-17T09:26:59.020Z,11464.00
2019-02-17T09:27:59.051Z,11428.00
2019-02-17T09:28:59.052Z,11512.00
2019-02-17T09:29:59.083Z,11596.00
2019-02-17T09:30:59.042Z,11548.00
2019-02-17T09:31:59.513Z,11464.00
2019-02-17T09:32:59.049Z,11488.00
2019-02-17T09:33:59.057Z,11496.00
2019-02-17T09:34:59.059Z,11512.00
2019-02-17T09:35:59.057Z,11484.00
2019-02-17T09:36:59.075Z,11460.00
2019-02-17T09:37:59.084Z,11484.00
2019-02-17T09:38:59.077Z,11520.00
2019-02-17T09:39:59.083Z,11512.00
2019-02-17T09:40:59.090Z,11528.00
2019-02-17T09:41:59.095Z,11512.00
2019-02-17T09:42:59.091Z,11500.00
2019-02-17T09:43:59.108Z,11468.00
2019-02-17T09:44:59.110Z,11440.00
2019-02-17T09:45:59.113Z,11436.00
2019-02-17T09:46:59.118Z,11408.00
2019-02-17T09:47:59.124Z,11472.00
2019-02-17T09:48:59.130Z,11500.00
2019-02-17T09:49:59.131Z,11428.00
2019-02-17T09:50:59.138Z,11424.00
2019-02-17T09:51:59.141Z,11416.00
2019-02-17T09:52:59.146Z,11384.00
2019-02-17T09:53:59.153Z,11368.00
2019-02-17T09:54:59.146Z,11340.00
2019-02-17T09:55:59.150Z,11300.00
2019-02-17T09:56:59.165Z,11288.00
2019-02-17T09:57:59.170Z,11228.00
2019-02-17T09:58:59.173Z,11188.00
2019-02-17T09:59:59.179Z,11184.00
2019-02-17T10:00:59.177Z,11128.00
2019-02-17T10:01:59.189Z,11136.00
2019-02-17T10:02:59.190Z,11152.00
2019-02-17T10:03:59.203Z,11100.00
2019-02-17T10:04:59.202Z,11108.00
2019-02-17T10:05:59.208Z,11096.00
2019-02-17T10:06:59.277Z,11112.00
2019-02-17T10:07:59.206Z,11128.00
2019-02-17T10:08:59.220Z,11072.00
2019-02-17T10:09:59.225Z,11028.00
2019-02-17T10:10:59.234Z,10992.00
2019-02-17T10:11:59.246Z,10968.00
2019-02-17T10:13:01.289Z,10980.00
2019-02-17T10:14:02.246Z,11020.00
2019-02-17T10:14:59.253Z,11032.00
2019-02-17T10:15:59.258Z,10936.00
2019-02-17T10:16:59.266Z,10904.00
2019-02-17T10:17:59.271Z,10836.00
2019-02-17T10:18:59.278Z,10812.00
2019-02-17T10:19:59.282Z,10808.00
2019-02-17T10:20:59.291Z,10840.00
2019-02-17T10:21:59.296Z,10832.00
2019-02-17T10:22:59.296Z,10820.00
2019-02-17T10:23:59.318Z,10828.00
2019-02-17T10:24:59.316Z,10744.00
2019-02-17T10:25:59.320Z,10716.00
2019-02-17T10:26:59.326Z,10752.00
2019-02-17T10:27:59.382Z,10756.00
2019-02-17T10:28:59.336Z,10720.00
2019-02-17T10:29:59.347Z,10744.00
2019-02-17T10:30:59.352Z,10768.00
2019-02-17T10:31:59.363Z,10720.00
2019-02-17T10:32:59.367Z,10644.00
2019-02-17T10:33:59.375Z,10592.00
2019-02-17T10:34:59.379Z,10608.00
2019-02-17T10:35:59.386Z,10652.00
2019-02-17T10:36:59.397Z,10596.00
2019-02-17T10:37:59.397Z,10604.00
2019-02-17T10:38:59.406Z,10656.00
2019-02-17T10:39:59.411Z,10564.00
2019-02-17T10:40:59.418Z,10512.00
2019-02-17T10:41:59.425Z,10464.00
2019-02-17T10:42:59.437Z,10396.00
2019-02-17T10:43:59.439Z,10404.00
2019-02-17T10:44:59.448Z,10404.00
2019-02-17T10:45:59.454Z,10348.00
2019-02-17T10:46:59.458Z,10332.00
2019-02-17T10:47:59.468Z,10368.00
2019-02-17T10:48:59.474Z,10368.00
2019-02-17T10:49:59.483Z,10364.00
2019-02-17T10:50:59.488Z,10288.00
2019-02-17T10:51:59.498Z,10236.00
2019-02-17T10:52:59.503Z,10184.00
2019-02-17T10:53:59.508Z,10220.00
2019-02-17T10:54:59.515Z,10228.00
2019-02-17T10:55:59.525Z,10168.00
2019-02-17T10:56:59.531Z,10164.00
2019-02-17T10:57:59.534Z,10136.00
2019-02-17T10:58:59.544Z,10144.00
2019-02-17T10:59:59.547Z,10168.00
2019-02-17T11:00:59.558Z,10092.00
2019-02-17T11:01:59.565Z,10076.00
2019-02-17T11:02:59.575Z,10116.00
2019-02-17T11:03:59.629Z,10152.00
2019-02-17T11:04:59.576Z,10116.00
2019-02-17T11:05:59.591Z,10060.00
2019-02-17T11:07:00.058Z,9972.00
2019-02-17T11:07:59.605Z,9876.00
2019-02-17T11:08:59.661Z,9808.00
2019-02-17T11:09:59.621Z,9780.00
2019-02-17T11:10:59.621Z,9816.00
2019-02-17T11:11:59.636Z,9812.00
2019-02-17T11:12:59.640Z,9832.00
2019-02-17T11:13:59.648Z,9844.00
2019-02-17T11:14:59.653Z,9784.00
2019-02-17T11:15:59.668Z,9720.00
2019-02-17T11:16:59.668Z,9752.00
2019-02-17T11:17:59.677Z,9756.00
2019-02-17T11:18:59.682Z,9724.00
2019-02-17T11:19:59.690Z,9740.00
2019-02-17T11:20:59.699Z,9800.00
2019-02-17T11:21:59.765Z,9696.00
2019-02-17T11:22:59.711Z,9704.00
2019-02-17T11:23:59.709Z,9796.00
2019-02-17T11:24:59.728Z,9784.00
2019-02-17T11:25:59.735Z,9708.00
2019-02-17T11:26:59.754Z,9688.00
2019-02-17T11:27:59.747Z,9716.00
2019-02-17T11:28:59.768Z,9784.00
2019-02-17T11:29:59.763Z,9816.00
2019-02-17T11:30:59.771Z,9804.00
2019-02-17T11:31:59.772Z,9732.00
2019-02-17T11:32:59.780Z,9772.00
2019-02-17T11:33:59.790Z,9876.00
2019-02-17T11:34:59.798Z,9820.00
2019-02-17T11:35:59.802Z,9784.00
2019-02-17T11:36:59.810Z,9712.00
2019-02-17T11:37:59.840Z,9716.00
2019-02-17T11:38:59.827Z,9824.00
2019-02-17T11:39:59.835Z,9856.00
2019-02-17T11:40:59.842Z,9792.00
2019-02-17T11:41:59.844Z,9700.00
2019-02-17T11:42:59.848Z,9640.00
2019-02-17T11:43:59.857Z,9668.00
2019-02-17T11:44:59.864Z,9552.00
2019-02-17T11:45:59.871Z,9524.00
2019-02-17T11:46:59.875Z,9392.00
2019-02-17T11:47:59.885Z,9332.00
2019-02-17T11:48:59.892Z,9332.00
2019-02-17T11:49:59.905Z,9336.00
2019-02-17T11:50:59.904Z,9340.00
2019-02-17T11:51:59.913Z,9332.00
2019-02-17T11:52:59.917Z,9312.00
2019-02-17T11:53:59.930Z,9428.00
2019-02-17T11:54:59.937Z,9536.00
2019-02-17T11:55:59.939Z,9520.00
2019-02-17T11:56:59.948Z,9528.00
2019-02-17T11:57:59.961Z,9532.00
2019-02-17T11:58:59.958Z,9496.00
2019-02-17T11:59:59.966Z,9572.00
2019-02-17T12:00:59.974Z,9580.00
2019-02-17T12:01:59.985Z,9476.00
2019-02-17T12:03:07.687Z,9444.00
2019-02-17T12:04:00.012Z,9448.00
2019-02-17T12:04:59.999Z,9364.00
2019-02-17T12:06:00.007Z,9288.00
2019-02-17T12:07:00.426Z,9280.00
2019-02-17T12:08:00.019Z,9188.00
2019-02-17T12:09:00.024Z,9144.00
2019-02-17T12:10:00.033Z,9152.00
2019-02-17T12:11:00.040Z,9184.00
2019-02-17T12:12:00.047Z,9188.00
2019-02-17T12:13:00.048Z,9204.00
2019-02-17T12:14:00.058Z,9248.00
2019-02-17T12:15:00.208Z,9364.00
2019-02-17T12:16:00.060Z,9376.00
2019-02-17T12:17:00.075Z,9332.00
2019-02-17T12:18:00.081Z,9348.00
2019-02-17T12:19:00.083Z,9356.00
2019-02-17T12:20:00.088Z,9388.00
2019-02-17T12:21:00.096Z,9344.00
2019-02-17T12:22:00.104Z,9260.00
2019-02-17T12:23:00.106Z,9228.00
2019-02-17T12:24:00.115Z,9228.00
2019-02-17T12:25:00.238Z,9204.00
2019-02-17T12:26:00.155Z,9192.00
2019-02-17T12:27:00.121Z,9188.00
2019-02-17T12:28:00.141Z,9104.00
2019-02-17T12:29:00.144Z,9060.00
2019-02-17T12:30:00.281Z,9064.00
2019-02-17T12:31:00.246Z,9052.00
2019-02-17T12:32:00.208Z,9004.00
2019-02-17T12:33:00.163Z,9024.00
2019-02-17T12:34:00.160Z,9016.00